sensor_id;sensor_type;location;lat;lon;timestamp;temperature;humidity
36434;DHT22;31691;51.972;5.672;2023-08-08T00:01:00;21.10;99.90
36434;DHT22;31691;51.972;5.672;2023-08-08T00:06:03;21.10;99.90
36434;DHT22;31691;51.972;5.672;2023-08-08T00:11:05;21.20;99.90
36434;DHT22;31691;51.972;5.672;2023-08-08T00:16:07;21.20;99.90
36434;DHT22;31691;51.972;5.672;2023-08-08T00:21:09;21.10;99.90
36434;DHT22;31691;51.972;5.672;2023-08-08T00:26:12;21.20;99.90
36434;DHT22;31691;51.972;5.672;2023-08-08T00:31:14;21.30;99.90
36434;DHT22;31691;51.972;5.672;2023-08-08T00:36:19;21.40;99.90
36434;DHT22;31691;51.972;5.672;2023-08-08T00:41:21;21.50;99.90
36434;DHT22;31691;51.972;5.672;2023-08-08T00:46:23;21.60;99.90
36434;DHT22;31691;51.972;5.672;2023-08-08T00:51:26;21.70;99.90
36434;DHT22;31691;51.972;5.672;2023-08-08T00:56:29;21.70;99.90
36434;DHT22;31691;51.972;5.672;2023-08-08T01:01:31;21.80;99.90
36434;DHT22;31691;51.972;5.672;2023-08-08T01:06:36;21.90;99.90
36434;DHT22;31691;51.972;5.672;2023-08-08T01:11:39;21.90;99.90
36434;DHT22;31691;51.972;5.672;2023-08-08T01:16:42;21.90;99.90
36434;DHT22;31691;51.972;5.672;2023-08-08T01:21:45;22.00;99.90
36434;DHT22;31691;51.972;5.672;2023-08-08T01:26:50;21.90;99.90
36434;DHT22;31691;51.972;5.672;2023-08-08T01:31:53;21.80;99.90
36434;DHT22;31691;51.972;5.672;2023-08-08T01:38:00;21.90;99.90
36434;DHT22;31691;51.972;5.672;2023-08-08T01:42:21;21.90;99.90
36434;DHT22;31691;51.972;5.672;2023-08-08T01:47:24;21.60;99.90
36434;DHT22;31691;51.972;5.672;2023-08-08T01:52:27;21.50;99.90
36434;DHT22;31691;51.972;5.672;2023-08-08T01:57:29;21.40;99.90
36434;DHT22;31691;51.972;5.672;2023-08-08T02:02:31;21.30;99.90
36434;DHT22;31691;51.972;5.672;2023-08-08T02:07:33;21.20;99.90
36434;DHT22;31691;51.972;5.672;2023-08-08T02:12:36;21.30;99.90
36434;DHT22;31691;51.972;5.672;2023-08-08T02:17:38;21.30;99.90
36434;DHT22;31691;51.972;5.672;2023-08-08T02:22:41;21.20;99.90
36434;DHT22;31691;51.972;5.672;2023-08-08T02:27:43;21.20;99.90
36434;DHT22;31691;51.972;5.672;2023-08-08T02:32:45;21.10;99.90
36434;DHT22;31691;51.972;5.672;2023-08-08T02:37:47;21.00;99.90
36434;DHT22;31691;51.972;5.672;2023-08-08T02:42:49;20.90;99.90
36434;DHT22;31691;51.972;5.672;2023-08-08T02:47:52;21.00;99.90
36434;DHT22;31691;51.972;5.672;2023-08-08T02:52:54;21.00;99.90
36434;DHT22;31691;51.972;5.672;2023-08-08T02:57:56;21.00;99.90
36434;DHT22;31691;51.972;5.672;2023-08-08T03:02:58;20.90;99.90
36434;DHT22;31691;51.972;5.672;2023-08-08T03:08:01;21.00;99.90
36434;DHT22;31691;51.972;5.672;2023-08-08T03:13:03;21.00;99.90
36434;DHT22;31691;51.972;5.672;2023-08-08T03:18:05;20.90;99.90
36434;DHT22;31691;51.972;5.672;2023-08-08T03:23:07;21.00;99.90
36434;DHT22;31691;51.972;5.672;2023-08-08T03:28:10;21.10;99.90
36434;DHT22;31691;51.972;5.672;2023-08-08T03:33:12;21.10;99.90
36434;DHT22;31691;51.972;5.672;2023-08-08T03:38:14;21.20;99.90
36434;DHT22;31691;51.972;5.672;2023-08-08T03:43:16;21.20;99.90
36434;DHT22;31691;51.972;5.672;2023-08-08T03:48:18;21.20;99.90
36434;DHT22;31691;51.972;5.672;2023-08-08T03:53:20;21.20;99.90
36434;DHT22;31691;51.972;5.672;2023-08-08T03:58:23;21.10;99.90
36434;DHT22;31691;51.972;5.672;2023-08-08T04:03:25;21.20;99.90
36434;DHT22;31691;51.972;5.672;2023-08-08T04:08:27;21.20;99.90
36434;DHT22;31691;51.972;5.672;2023-08-08T04:13:29;21.20;99.90
36434;DHT22;31691;51.972;5.672;2023-08-08T04:18:31;21.10;99.90
36434;DHT22;31691;51.972;5.672;2023-08-08T04:23:33;21.10;99.90
36434;DHT22;31691;51.972;5.672;2023-08-08T04:28:35;21.10;99.90
36434;DHT22;31691;51.972;5.672;2023-08-08T04:33:38;21.00;99.90
36434;DHT22;31691;51.972;5.672;2023-08-08T04:38:40;21.10;99.90
36434;DHT22;31691;51.972;5.672;2023-08-08T04:43:42;21.10;99.90
36434;DHT22;31691;51.972;5.672;2023-08-08T04:48:44;21.30;99.90
36434;DHT22;31691;51.972;5.672;2023-08-08T04:53:46;21.40;99.90
36434;DHT22;31691;51.972;5.672;2023-08-08T04:58:48;21.60;99.90
36434;DHT22;31691;51.972;5.672;2023-08-08T05:03:50;21.40;99.90
36434;DHT22;31691;51.972;5.672;2023-08-08T05:08:57;21.40;99.90
36434;DHT22;31691;51.972;5.672;2023-08-08T05:13:59;21.30;99.90
36434;DHT22;31691;51.972;5.672;2023-08-08T05:19:01;21.40;99.90
36434;DHT22;31691;51.972;5.672;2023-08-08T05:24:03;21.50;99.90
36434;DHT22;31691;51.972;5.672;2023-08-08T05:29:06;21.70;99.90
36434;DHT22;31691;51.972;5.672;2023-08-08T05:34:08;21.90;99.90
36434;DHT22;31691;51.972;5.672;2023-08-08T05:39:10;22.00;99.90
36434;DHT22;31691;51.972;5.672;2023-08-08T05:44:12;22.10;99.90
36434;DHT22;31691;51.972;5.672;2023-08-08T05:49:14;22.30;99.90
36434;DHT22;31691;51.972;5.672;2023-08-08T05:54:16;22.40;99.90
36434;DHT22;31691;51.972;5.672;2023-08-08T05:59:18;22.40;99.90
36434;DHT22;31691;51.972;5.672;2023-08-08T06:04:20;22.60;99.90
36434;DHT22;31691;51.972;5.672;2023-08-08T06:09:22;22.90;99.90
36434;DHT22;31691;51.972;5.672;2023-08-08T06:14:24;23.20;99.90
36434;DHT22;31691;51.972;5.672;2023-08-08T06:19:26;23.80;99.90
36434;DHT22;31691;51.972;5.672;2023-08-08T06:24:29;24.20;99.90
36434;DHT22;31691;51.972;5.672;2023-08-08T06:29:31;24.50;99.90
36434;DHT22;31691;51.972;5.672;2023-08-08T06:34:33;24.70;99.90
36434;DHT22;31691;51.972;5.672;2023-08-08T06:39:36;24.50;99.90
36434;DHT22;31691;51.972;5.672;2023-08-08T06:44:44;24.30;99.90
36434;DHT22;31691;51.972;5.672;2023-08-08T06:49:46;24.40;99.90
36434;DHT22;31691;51.972;5.672;2023-08-08T06:54:48;24.50;99.90
36434;DHT22;31691;51.972;5.672;2023-08-08T06:59:50;24.00;99.60
36434;DHT22;31691;51.972;5.672;2023-08-08T07:04:54;23.60;99.90
36434;DHT22;31691;51.972;5.672;2023-08-08T07:09:56;23.40;99.90
36434;DHT22;31691;51.972;5.672;2023-08-08T07:14:59;23.30;99.90
36434;DHT22;31691;51.972;5.672;2023-08-08T07:20:03;23.30;99.90
36434;DHT22;31691;51.972;5.672;2023-08-08T07:25:07;23.40;99.90
36434;DHT22;31691;51.972;5.672;2023-08-08T07:30:10;23.50;99.90
36434;DHT22;31691;51.972;5.672;2023-08-08T07:35:13;23.80;99.70
36434;DHT22;31691;51.972;5.672;2023-08-08T07:40:17;23.60;99.10
36434;DHT22;31691;51.972;5.672;2023-08-08T07:45:20;23.80;98.60
36434;DHT22;31691;51.972;5.672;2023-08-08T07:50:23;23.70;98.70
36434;DHT22;31691;51.972;5.672;2023-08-08T07:55:25;23.40;99.00
36434;DHT22;31691;51.972;5.672;2023-08-08T08:00:27;23.60;98.80
36434;DHT22;31691;51.972;5.672;2023-08-08T08:05:30;23.60;99.10
36434;DHT22;31691;51.972;5.672;2023-08-08T08:10:32;23.70;98.80
36434;DHT22;31691;51.972;5.672;2023-08-08T08:15:34;24.00;97.90
36434;DHT22;31691;51.972;5.672;2023-08-08T08:20:36;24.20;97.50
36434;DHT22;31691;51.972;5.672;2023-08-08T08:25:39;24.20;97.50
36434;DHT22;31691;51.972;5.672;2023-08-08T08:30:41;24.10;97.50
36434;DHT22;31691;51.972;5.672;2023-08-08T08:35:43;24.30;97.40
36434;DHT22;31691;51.972;5.672;2023-08-08T08:40:45;24.50;96.40
36434;DHT22;31691;51.972;5.672;2023-08-08T08:45:52;24.40;96.50
36434;DHT22;31691;51.972;5.672;2023-08-08T08:50:56;24.60;96.30
36434;DHT22;31691;51.972;5.672;2023-08-08T08:55:59;24.40;96.00
36434;DHT22;31691;51.972;5.672;2023-08-08T09:01:03;24.20;95.90
36434;DHT22;31691;51.972;5.672;2023-08-08T09:06:05;24.50;95.80
36434;DHT22;31691;51.972;5.672;2023-08-08T09:11:08;24.80;95.80
36434;DHT22;31691;51.972;5.672;2023-08-08T09:16:10;25.10;95.60
36434;DHT22;31691;51.972;5.672;2023-08-08T09:21:14;24.80;94.60
36434;DHT22;31691;51.972;5.672;2023-08-08T09:26:17;24.90;94.30
36434;DHT22;31691;51.972;5.672;2023-08-08T09:31:20;24.80;93.80
36434;DHT22;31691;51.972;5.672;2023-08-08T09:36:22;25.10;94.30
36434;DHT22;31691;51.972;5.672;2023-08-08T09:41:25;25.50;94.00
36434;DHT22;31691;51.972;5.672;2023-08-08T09:46:29;25.50;93.90
36434;DHT22;31691;51.972;5.672;2023-08-08T09:51:33;25.80;94.20
36434;DHT22;31691;51.972;5.672;2023-08-08T09:56:36;26.00;93.20
36434;DHT22;31691;51.972;5.672;2023-08-08T10:01:40;26.30;93.30
36434;DHT22;31691;51.972;5.672;2023-08-08T10:06:43;26.50;92.70
36434;DHT22;31691;51.972;5.672;2023-08-08T10:11:46;26.10;91.50
36434;DHT22;31691;51.972;5.672;2023-08-08T10:16:49;26.20;91.50
36434;DHT22;31691;51.972;5.672;2023-08-08T10:21:57;26.30;92.40
36434;DHT22;31691;51.972;5.672;2023-08-08T10:27:01;26.00;92.60
36434;DHT22;31691;51.972;5.672;2023-08-08T10:32:06;25.90;91.80
36434;DHT22;31691;51.972;5.672;2023-08-08T10:37:13;25.80;92.90
36434;DHT22;31691;51.972;5.672;2023-08-08T10:42:18;26.00;92.70
36434;DHT22;31691;51.972;5.672;2023-08-08T10:47:24;26.10;91.40
36434;DHT22;31691;51.972;5.672;2023-08-08T10:52:26;26.60;91.70
36434;DHT22;31691;51.972;5.672;2023-08-08T10:57:30;26.50;92.40
36434;DHT22;31691;51.972;5.672;2023-08-08T11:02:32;26.20;91.90
36434;DHT22;31691;51.972;5.672;2023-08-08T11:07:37;26.50;92.00
36434;DHT22;31691;51.972;5.672;2023-08-08T11:12:40;26.80;91.50
36434;DHT22;31691;51.972;5.672;2023-08-08T11:17:42;27.10;91.40
36434;DHT22;31691;51.972;5.672;2023-08-08T11:22:45;27.00;90.40
36434;DHT22;31691;51.972;5.672;2023-08-08T11:27:49;26.60;90.80
36434;DHT22;31691;51.972;5.672;2023-08-08T11:32:52;26.40;91.70
36434;DHT22;31691;51.972;5.672;2023-08-08T11:37:58;26.60;91.30
36434;DHT22;31691;51.972;5.672;2023-08-08T11:43:01;26.90;91.20
36434;DHT22;31691;51.972;5.672;2023-08-08T11:48:04;27.20;91.50
36434;DHT22;31691;51.972;5.672;2023-08-08T11:53:07;27.70;90.90
36434;DHT22;31691;51.972;5.672;2023-08-08T11:58:13;27.90;90.40
36434;DHT22;31691;51.972;5.672;2023-08-08T12:03:18;28.00;90.70
36434;DHT22;31691;51.972;5.672;2023-08-08T12:08:21;27.60;89.00
36434;DHT22;31691;51.972;5.672;2023-08-08T12:13:25;27.40;90.50
36434;DHT22;31691;51.972;5.672;2023-08-08T12:18:29;27.40;90.90
36434;DHT22;31691;51.972;5.672;2023-08-08T12:23:33;27.60;91.00
36434;DHT22;31691;51.972;5.672;2023-08-08T12:28:35;27.40;88.60
36434;DHT22;31691;51.972;5.672;2023-08-08T12:33:38;27.40;91.10
36434;DHT22;31691;51.972;5.672;2023-08-08T12:38:40;27.60;90.90
36434;DHT22;31691;51.972;5.672;2023-08-08T12:43:42;27.40;90.20
36434;DHT22;31691;51.972;5.672;2023-08-08T12:48:45;27.60;90.30
36434;DHT22;31691;51.972;5.672;2023-08-08T12:53:47;27.40;90.10
36434;DHT22;31691;51.972;5.672;2023-08-08T12:58:49;27.20;90.60
36434;DHT22;31691;51.972;5.672;2023-08-08T13:03:52;27.10;90.40
36434;DHT22;31691;51.972;5.672;2023-08-08T13:09:14;27.20;90.00
36434;DHT22;31691;51.972;5.672;2023-08-08T13:14:17;26.80;90.80
36434;DHT22;31691;51.972;5.672;2023-08-08T13:19:20;26.80;90.90
36434;DHT22;31691;51.972;5.672;2023-08-08T13:24:23;26.40;90.70
36434;DHT22;31691;51.972;5.672;2023-08-08T13:29:25;26.20;92.10
36434;DHT22;31691;51.972;5.672;2023-08-08T13:34:27;26.40;91.60
36434;DHT22;31691;51.972;5.672;2023-08-08T13:39:30;27.00;92.00
36434;DHT22;31691;51.972;5.672;2023-08-08T13:44:32;27.30;90.60
36434;DHT22;31691;51.972;5.672;2023-08-08T13:49:34;27.20;91.50
36434;DHT22;31691;51.972;5.672;2023-08-08T13:54:37;27.20;91.10
36434;DHT22;31691;51.972;5.672;2023-08-08T13:59:40;26.50;91.60
36434;DHT22;31691;51.972;5.672;2023-08-08T14:04:42;26.00;92.20
36434;DHT22;31691;51.972;5.672;2023-08-08T14:09:44;26.00;92.00
36434;DHT22;31691;51.972;5.672;2023-08-08T14:14:46;26.00;92.30
36434;DHT22;31691;51.972;5.672;2023-08-08T14:19:48;26.10;92.20
36434;DHT22;31691;51.972;5.672;2023-08-08T14:24:50;26.00;91.90
36434;DHT22;31691;51.972;5.672;2023-08-08T14:29:52;26.10;92.30
36434;DHT22;31691;51.972;5.672;2023-08-08T14:34:55;26.20;91.50
36434;DHT22;31691;51.972;5.672;2023-08-08T14:40:01;26.30;90.90
36434;DHT22;31691;51.972;5.672;2023-08-08T14:45:05;26.30;91.40
36434;DHT22;31691;51.972;5.672;2023-08-08T14:50:07;26.60;91.30
36434;DHT22;31691;51.972;5.672;2023-08-08T14:55:10;26.60;90.90
36434;DHT22;31691;51.972;5.672;2023-08-08T15:00:12;26.60;90.80
36434;DHT22;31691;51.972;5.672;2023-08-08T15:05:15;26.70;90.80
36434;DHT22;31691;51.972;5.672;2023-08-08T15:10:17;26.50;90.70
36434;DHT22;31691;51.972;5.672;2023-08-08T15:15:20;26.60;90.80
36434;DHT22;31691;51.972;5.672;2023-08-08T15:20:25;26.60;90.90
36434;DHT22;31691;51.972;5.672;2023-08-08T15:25:27;26.80;91.10
36434;DHT22;31691;51.972;5.672;2023-08-08T15:30:29;27.40;91.00
36434;DHT22;31691;51.972;5.672;2023-08-08T15:35:32;27.60;89.90
36434;DHT22;31691;51.972;5.672;2023-08-08T15:40:34;27.30;90.60
36434;DHT22;31691;51.972;5.672;2023-08-08T15:45:36;27.00;90.60
36434;DHT22;31691;51.972;5.672;2023-08-08T15:50:38;26.90;90.90
36434;DHT22;31691;51.972;5.672;2023-08-08T15:55:40;27.00;91.20
36434;DHT22;31691;51.972;5.672;2023-08-08T16:00:43;26.80;91.30
36434;DHT22;31691;51.972;5.672;2023-08-08T16:05:45;27.00;91.50
36434;DHT22;31691;51.972;5.672;2023-08-08T16:10:47;26.90;91.10
36434;DHT22;31691;51.972;5.672;2023-08-08T16:15:49;27.10;91.60
36434;DHT22;31691;51.972;5.672;2023-08-08T16:20:51;27.00;90.50
36434;DHT22;31691;51.972;5.672;2023-08-08T16:25:54;26.50;91.10
36434;DHT22;31691;51.972;5.672;2023-08-08T16:30:56;26.30;90.70
36434;DHT22;31691;51.972;5.672;2023-08-08T16:35:59;26.20;91.60
36434;DHT22;31691;51.972;5.672;2023-08-08T16:41:02;26.10;92.10
36434;DHT22;31691;51.972;5.672;2023-08-08T16:46:05;26.20;92.60
36434;DHT22;31691;51.972;5.672;2023-08-08T16:51:08;26.20;92.50
36434;DHT22;31691;51.972;5.672;2023-08-08T16:56:11;25.90;91.40
36434;DHT22;31691;51.972;5.672;2023-08-08T17:01:13;25.90;92.20
36434;DHT22;31691;51.972;5.672;2023-08-08T17:06:15;25.60;92.70
36434;DHT22;31691;51.972;5.672;2023-08-08T17:11:17;25.40;93.50
36434;DHT22;31691;51.972;5.672;2023-08-08T17:16:19;24.90;95.20
36434;DHT22;31691;51.972;5.672;2023-08-08T17:21:22;24.50;96.70
36434;DHT22;31691;51.972;5.672;2023-08-08T17:26:24;24.50;98.20
36434;DHT22;31691;51.972;5.672;2023-08-08T17:31:26;24.30;98.10
36434;DHT22;31691;51.972;5.672;2023-08-08T17:36:29;24.20;98.40
36434;DHT22;31691;51.972;5.672;2023-08-08T17:41:31;23.90;98.80
36434;DHT22;31691;51.972;5.672;2023-08-08T17:46:33;23.70;98.40
36434;DHT22;31691;51.972;5.672;2023-08-08T17:51:35;23.60;98.60
36434;DHT22;31691;51.972;5.672;2023-08-08T17:56:37;23.50;99.80
36434;DHT22;31691;51.972;5.672;2023-08-08T18:01:39;23.50;99.90
36434;DHT22;31691;51.972;5.672;2023-08-08T18:06:41;23.40;99.90
36434;DHT22;31691;51.972;5.672;2023-08-08T18:11:43;23.40;99.90
36434;DHT22;31691;51.972;5.672;2023-08-08T18:16:47;23.30;99.90
36434;DHT22;31691;51.972;5.672;2023-08-08T18:21:49;23.10;99.90
36434;DHT22;31691;51.972;5.672;2023-08-08T18:26:51;22.60;99.90
36434;DHT22;31691;51.972;5.672;2023-08-08T18:31:54;22.20;99.90
36434;DHT22;31691;51.972;5.672;2023-08-08T18:36:56;21.80;99.90
36434;DHT22;31691;51.972;5.672;2023-08-08T18:41:58;21.70;99.90
36434;DHT22;31691;51.972;5.672;2023-08-08T18:47:00;22.00;99.90
36434;DHT22;31691;51.972;5.672;2023-08-08T18:52:04;22.10;99.90
36434;DHT22;31691;51.972;5.672;2023-08-08T18:57:06;22.20;99.90
36434;DHT22;31691;51.972;5.672;2023-08-08T19:02:08;22.30;99.90
36434;DHT22;31691;51.972;5.672;2023-08-08T19:07:10;22.20;99.90
36434;DHT22;31691;51.972;5.672;2023-08-08T19:12:12;22.00;99.90
36434;DHT22;31691;51.972;5.672;2023-08-08T19:17:14;21.90;99.90
36434;DHT22;31691;51.972;5.672;2023-08-08T19:22:16;21.90;99.90
36434;DHT22;31691;51.972;5.672;2023-08-08T19:27:19;21.70;99.90
36434;DHT22;31691;51.972;5.672;2023-08-08T19:32:21;21.40;99.90
36434;DHT22;31691;51.972;5.672;2023-08-08T19:37:24;21.20;99.90
36434;DHT22;31691;51.972;5.672;2023-08-08T19:42:26;21.20;99.90
36434;DHT22;31691;51.972;5.672;2023-08-08T19:47:28;21.10;99.90
36434;DHT22;31691;51.972;5.672;2023-08-08T19:52:30;21.20;99.90
36434;DHT22;31691;51.972;5.672;2023-08-08T19:57:32;21.30;99.90
36434;DHT22;31691;51.972;5.672;2023-08-08T20:02:34;21.40;99.90
36434;DHT22;31691;51.972;5.672;2023-08-08T20:07:36;21.50;99.90
36434;DHT22;31691;51.972;5.672;2023-08-08T20:12:39;21.60;99.90
36434;DHT22;31691;51.972;5.672;2023-08-08T20:17:41;21.70;99.90
36434;DHT22;31691;51.972;5.672;2023-08-08T20:22:44;21.80;99.90
36434;DHT22;31691;51.972;5.672;2023-08-08T20:27:46;21.90;99.90
36434;DHT22;31691;51.972;5.672;2023-08-08T20:32:49;22.00;99.90
36434;DHT22;31691;51.972;5.672;2023-08-08T20:37:51;22.00;99.90
36434;DHT22;31691;51.972;5.672;2023-08-08T20:42:53;22.00;99.90
36434;DHT22;31691;51.972;5.672;2023-08-08T20:47:55;22.00;99.90
36434;DHT22;31691;51.972;5.672;2023-08-08T20:52:57;21.90;99.90
36434;DHT22;31691;51.972;5.672;2023-08-08T20:58:00;22.00;99.90
36434;DHT22;31691;51.972;5.672;2023-08-08T21:03:07;21.90;99.90
36434;DHT22;31691;51.972;5.672;2023-08-08T21:08:10;21.90;99.90
36434;DHT22;31691;51.972;5.672;2023-08-08T21:13:12;21.80;99.90
36434;DHT22;31691;51.972;5.672;2023-08-08T21:18:14;21.90;99.90
36434;DHT22;31691;51.972;5.672;2023-08-08T21:23:16;21.90;99.90
36434;DHT22;31691;51.972;5.672;2023-08-08T21:28:18;21.70;99.90
36434;DHT22;31691;51.972;5.672;2023-08-08T21:33:21;21.50;99.90
36434;DHT22;31691;51.972;5.672;2023-08-08T21:38:23;21.40;99.90
36434;DHT22;31691;51.972;5.672;2023-08-08T21:43:25;21.20;99.90
36434;DHT22;31691;51.972;5.672;2023-08-08T21:48:27;21.20;99.90
36434;DHT22;31691;51.972;5.672;2023-08-08T21:53:29;21.30;99.90
36434;DHT22;31691;51.972;5.672;2023-08-08T21:58:32;21.30;99.90
36434;DHT22;31691;51.972;5.672;2023-08-08T22:03:34;21.40;99.90
36434;DHT22;31691;51.972;5.672;2023-08-08T22:08:36;21.50;99.90
36434;DHT22;31691;51.972;5.672;2023-08-08T22:13:38;21.60;99.90
36434;DHT22;31691;51.972;5.672;2023-08-08T22:18:40;21.70;99.90
36434;DHT22;31691;51.972;5.672;2023-08-08T22:23:42;21.80;99.90
36434;DHT22;31691;51.972;5.672;2023-08-08T22:28:45;21.80;99.90
36434;DHT22;31691;51.972;5.672;2023-08-08T22:33:47;21.70;99.90
36434;DHT22;31691;51.972;5.672;2023-08-08T22:38:49;21.60;99.90
36434;DHT22;31691;51.972;5.672;2023-08-08T22:43:55;21.60;99.90
36434;DHT22;31691;51.972;5.672;2023-08-08T22:48:57;21.60;99.90
36434;DHT22;31691;51.972;5.672;2023-08-08T22:53:59;21.70;99.90
36434;DHT22;31691;51.972;5.672;2023-08-08T22:59:01;21.70;99.90
36434;DHT22;31691;51.972;5.672;2023-08-08T23:04:03;21.70;99.90
36434;DHT22;31691;51.972;5.672;2023-08-08T23:09:05;21.70;99.90
36434;DHT22;31691;51.972;5.672;2023-08-08T23:14:07;21.60;99.90
36434;DHT22;31691;51.972;5.672;2023-08-08T23:19:10;21.60;99.90
36434;DHT22;31691;51.972;5.672;2023-08-08T23:24:12;21.50;99.90
36434;DHT22;31691;51.972;5.672;2023-08-08T23:29:14;21.50;99.90
36434;DHT22;31691;51.972;5.672;2023-08-08T23:34:16;21.50;99.90
36434;DHT22;31691;51.972;5.672;2023-08-08T23:39:18;21.50;99.90
36434;DHT22;31691;51.972;5.672;2023-08-08T23:44:21;21.40;99.90
36434;DHT22;31691;51.972;5.672;2023-08-08T23:49:23;21.50;99.90
36434;DHT22;31691;51.972;5.672;2023-08-08T23:54:25;21.50;99.90
36434;DHT22;31691;51.972;5.672;2023-08-08T23:59:27;21.50;99.90
